sensor_id;sensor_type;location;lat;lon;timestamp;pressure;altitude;pressure_sealevel;temperature;humidity
29215;BME280;16252;49.816;7.964;2023-09-30T00:00:35;100864.34;;;20.81;53.95
29215;BME280;16252;49.816;7.964;2023-09-30T00:03:01;100835.63;;;20.52;53.94
29215;BME280;16252;49.816;7.964;2023-09-30T00:05:27;100858.84;;;20.64;53.93
29215;BME280;16252;49.816;7.964;2023-09-30T00:07:52;100886.56;;;20.76;53.82
29215;BME280;16252;49.816;7.964;2023-09-30T00:10:17;100859.63;;;20.56;54.32
29215;BME280;16252;49.816;7.964;2023-09-30T00:12:43;100858.94;;;20.54;54.11
29215;BME280;16252;49.816;7.964;2023-09-30T00:15:08;100846.13;;;20.47;53.94
29215;BME280;16252;49.816;7.964;2023-09-30T00:17:34;100864.91;;;20.58;53.98
29215;BME280;16252;49.816;7.964;2023-09-30T00:19:59;100843.88;;;20.42;53.95
29215;BME280;16252;49.816;7.964;2023-09-30T00:22:25;100858.88;;;20.46;53.98
29215;BME280;16252;49.816;7.964;2023-09-30T00:24:50;100847.06;;;20.38;53.85
29215;BME280;16252;49.816;7.964;2023-09-30T00:27:16;100894.97;;;20.56;54.01
29215;BME280;16252;49.816;7.964;2023-09-30T00:29:41;100857.25;;;20.35;53.94
29215;BME280;16252;49.816;7.964;2023-09-30T00:32:06;100899.31;;;20.49;53.81
29215;BME280;16252;49.816;7.964;2023-09-30T00:34:33;100870.97;;;20.26;54.00
29215;BME280;16252;49.816;7.964;2023-09-30T00:36:59;100863.59;;;20.18;54.07
29215;BME280;16252;49.816;7.964;2023-09-30T00:39:24;100888.50;;;20.31;53.90
29215;BME280;16252;49.816;7.964;2023-09-30T00:41:52;100894.53;;;20.25;54.09
29215;BME280;16252;49.816;7.964;2023-09-30T00:44:17;100890.06;;;20.16;53.99
29215;BME280;16252;49.816;7.964;2023-09-30T00:46:42;100907.22;;;20.17;53.93
29215;BME280;16252;49.816;7.964;2023-09-30T00:49:08;100894.97;;;20.12;54.08
29215;BME280;16252;49.816;7.964;2023-09-30T00:51:35;100858.19;;;19.82;54.25
29215;BME280;16252;49.816;7.964;2023-09-30T00:54:01;100909.19;;;20.06;54.15
29215;BME280;16252;49.816;7.964;2023-09-30T00:56:28;100924.63;;;20.06;54.17
29215;BME280;16252;49.816;7.964;2023-09-30T00:58:55;100890.56;;;19.76;54.27
29215;BME280;16252;49.816;7.964;2023-09-30T01:01:20;100928.72;;;19.92;54.43
29215;BME280;16252;49.816;7.964;2023-09-30T01:03:47;100880.06;;;19.63;54.64
29215;BME280;16252;49.816;7.964;2023-09-30T01:06:13;100925.50;;;19.88;54.53
29215;BME280;16252;49.816;7.964;2023-09-30T01:08:38;100911.72;;;19.72;54.68
29215;BME280;16252;49.816;7.964;2023-09-30T01:11:04;100912.44;;;19.74;54.56
29215;BME280;16252;49.816;7.964;2023-09-30T01:13:36;100921.69;;;19.81;54.44
29215;BME280;16252;49.816;7.964;2023-09-30T01:16:09;100902.09;;;19.60;54.71
29215;BME280;16252;49.816;7.964;2023-09-30T01:18:35;100891.91;;;19.44;54.58
29215;BME280;16252;49.816;7.964;2023-09-30T01:21:04;100933.47;;;19.72;54.95
29215;BME280;16252;49.816;7.964;2023-09-30T01:23:30;100858.91;;;19.21;54.84
29215;BME280;16252;49.816;7.964;2023-09-30T01:25:56;100919.63;;;19.47;55.00
29215;BME280;16252;49.816;7.964;2023-09-30T01:28:21;100931.44;;;19.46;54.93
29215;BME280;16252;49.816;7.964;2023-09-30T01:30:46;100930.22;;;19.41;54.90
29215;BME280;16252;49.816;7.964;2023-09-30T01:33:12;100879.81;;;19.11;54.94
29215;BME280;16252;49.816;7.964;2023-09-30T01:35:37;100884.28;;;19.12;55.05
29215;BME280;16252;49.816;7.964;2023-09-30T01:38:02;100888.41;;;19.06;54.98
29215;BME280;16252;49.816;7.964;2023-09-30T01:40:27;100929.28;;;19.32;54.97
29215;BME280;16252;49.816;7.964;2023-09-30T01:42:53;100917.63;;;19.22;54.85
29215;BME280;16252;49.816;7.964;2023-09-30T01:45:18;100871.19;;;18.97;54.92
29215;BME280;16252;49.816;7.964;2023-09-30T01:47:43;100888.28;;;19.08;55.36
29215;BME280;16252;49.816;7.964;2023-09-30T01:50:09;100889.97;;;19.09;55.08
29215;BME280;16252;49.816;7.964;2023-09-30T01:52:34;100919.22;;;19.15;55.41
29215;BME280;16252;49.816;7.964;2023-09-30T01:54:59;100889.03;;;19.00;55.42
29215;BME280;16252;49.816;7.964;2023-09-30T01:57:25;100917.66;;;19.12;55.64
29215;BME280;16252;49.816;7.964;2023-09-30T01:59:50;100921.75;;;19.16;55.34
29215;BME280;16252;49.816;7.964;2023-09-30T02:02:15;100927.75;;;19.20;55.65
29215;BME280;16252;49.816;7.964;2023-09-30T02:04:41;100873.41;;;18.84;55.53
29215;BME280;16252;49.816;7.964;2023-09-30T02:07:06;100890.72;;;19.01;55.63
29215;BME280;16252;49.816;7.964;2023-09-30T02:09:31;100904.84;;;19.04;55.63
29215;BME280;16252;49.816;7.964;2023-09-30T02:11:57;100923.41;;;19.09;55.43
29215;BME280;16252;49.816;7.964;2023-09-30T02:14:22;100901.78;;;18.90;55.45
29215;BME280;16252;49.816;7.964;2023-09-30T02:16:48;100935.97;;;19.00;55.42
29215;BME280;16252;49.816;7.964;2023-09-30T02:19:13;100869.72;;;18.66;55.41
29215;BME280;16252;49.816;7.964;2023-09-30T02:21:38;100909.91;;;18.90;55.37
29215;BME280;16252;49.816;7.964;2023-09-30T02:24:04;100936.53;;;19.04;55.38
29215;BME280;16252;49.816;7.964;2023-09-30T02:26:31;100932.44;;;18.90;55.24
29215;BME280;16252;49.816;7.964;2023-09-30T02:28:57;100932.88;;;18.86;55.36
29215;BME280;16252;49.816;7.964;2023-09-30T02:31:23;100928.94;;;18.80;55.69
29215;BME280;16252;49.816;7.964;2023-09-30T02:33:49;100915.38;;;18.70;55.59
29215;BME280;16252;49.816;7.964;2023-09-30T02:36:15;100949.59;;;18.81;55.60
29215;BME280;16252;49.816;7.964;2023-09-30T02:38:41;100916.41;;;18.59;55.43
29215;BME280;16252;49.816;7.964;2023-09-30T02:41:06;100948.19;;;18.77;55.74
29215;BME280;16252;49.816;7.964;2023-09-30T02:43:32;100982.13;;;18.91;55.67
29215;BME280;16252;49.816;7.964;2023-09-30T02:45:58;100967.91;;;18.79;55.64
29215;BME280;16252;49.816;7.964;2023-09-30T02:48:23;100928.69;;;18.54;55.50
29215;BME280;16252;49.816;7.964;2023-09-30T02:50:48;100957.88;;;18.70;55.48
29215;BME280;16252;49.816;7.964;2023-09-30T02:53:13;100938.38;;;18.56;55.58
29215;BME280;16252;49.816;7.964;2023-09-30T02:55:40;100968.16;;;18.76;55.75
29215;BME280;16252;49.816;7.964;2023-09-30T02:58:06;100941.22;;;18.65;55.73
29215;BME280;16252;49.816;7.964;2023-09-30T03:00:33;100954.88;;;18.73;55.48
29215;BME280;16252;49.816;7.964;2023-09-30T03:03:00;100966.69;;;18.91;55.56
29215;BME280;16252;49.816;7.964;2023-09-30T03:05:26;100962.72;;;18.86;55.38
29215;BME280;16252;49.816;7.964;2023-09-30T03:07:53;100961.16;;;18.83;55.60
29215;BME280;16252;49.816;7.964;2023-09-30T03:10:19;100962.47;;;18.79;55.74
29215;BME280;16252;49.816;7.964;2023-09-30T03:12:49;100959.03;;;18.77;55.63
29215;BME280;16252;49.816;7.964;2023-09-30T03:15:15;100976.44;;;18.74;55.64
29215;BME280;16252;49.816;7.964;2023-09-30T03:17:41;100931.41;;;18.44;55.83
29215;BME280;16252;49.816;7.964;2023-09-30T03:20:07;100968.44;;;18.63;55.80
29215;BME280;16252;49.816;7.964;2023-09-30T03:22:42;100964.91;;;18.53;55.76
29215;BME280;16252;49.816;7.964;2023-09-30T03:25:10;100973.19;;;18.51;55.73
29215;BME280;16252;49.816;7.964;2023-09-30T03:27:37;100943.53;;;18.40;55.66
29215;BME280;16252;49.816;7.964;2023-09-30T03:30:04;101003.25;;;18.68;55.81
29215;BME280;16252;49.816;7.964;2023-09-30T03:32:31;100962.38;;;18.41;55.68
29215;BME280;16252;49.816;7.964;2023-09-30T03:34:58;100995.44;;;18.55;55.54
29215;BME280;16252;49.816;7.964;2023-09-30T03:37:26;100963.66;;;18.37;55.71
29215;BME280;16252;49.816;7.964;2023-09-30T03:39:54;100943.84;;;18.27;55.76
29215;BME280;16252;49.816;7.964;2023-09-30T03:42:20;100975.91;;;18.41;55.77
29215;BME280;16252;49.816;7.964;2023-09-30T03:44:45;100978.91;;;18.38;55.88
29215;BME280;16252;49.816;7.964;2023-09-30T03:47:11;100993.56;;;18.46;55.65
29215;BME280;16252;49.816;7.964;2023-09-30T03:49:36;100892.97;;;17.72;55.91
29215;BME280;16252;49.816;7.964;2023-09-30T03:52:03;100982.91;;;18.25;55.83
29215;BME280;16252;49.816;7.964;2023-09-30T03:54:29;100997.03;;;18.28;55.91
29215;BME280;16252;49.816;7.964;2023-09-30T03:56:55;100997.47;;;18.24;56.01
29215;BME280;16252;49.816;7.964;2023-09-30T03:59:20;100959.66;;;18.03;56.05
29215;BME280;16252;49.816;7.964;2023-09-30T04:01:45;100991.91;;;18.15;55.92
29215;BME280;16252;49.816;7.964;2023-09-30T04:04:12;100977.50;;;17.95;56.17
29215;BME280;16252;49.816;7.964;2023-09-30T04:06:37;100983.59;;;17.97;56.14
29215;BME280;16252;49.816;7.964;2023-09-30T04:09:04;100990.31;;;17.93;56.39
29215;BME280;16252;49.816;7.964;2023-09-30T04:11:35;100967.44;;;17.76;56.33
29215;BME280;16252;49.816;7.964;2023-09-30T04:14:01;100987.47;;;17.85;56.59
29215;BME280;16252;49.816;7.964;2023-09-30T04:16:26;100998.97;;;17.87;56.19
29215;BME280;16252;49.816;7.964;2023-09-30T04:18:54;100974.84;;;17.74;56.30
29215;BME280;16252;49.816;7.964;2023-09-30T04:21:20;100998.78;;;17.79;56.26
29215;BME280;16252;49.816;7.964;2023-09-30T04:23:45;100984.53;;;17.67;56.36
29215;BME280;16252;49.816;7.964;2023-09-30T04:26:11;100981.84;;;17.67;56.23
29215;BME280;16252;49.816;7.964;2023-09-30T04:28:36;100981.84;;;17.67;56.34
29215;BME280;16252;49.816;7.964;2023-09-30T04:31:02;100986.22;;;17.59;56.26
29215;BME280;16252;49.816;7.964;2023-09-30T04:33:28;100927.72;;;17.17;56.48
29215;BME280;16252;49.816;7.964;2023-09-30T04:35:53;100997.44;;;17.54;56.54
29215;BME280;16252;49.816;7.964;2023-09-30T04:38:19;100954.09;;;17.25;56.66
29215;BME280;16252;49.816;7.964;2023-09-30T04:40:44;100930.84;;;17.13;56.32
29215;BME280;16252;49.816;7.964;2023-09-30T04:43:10;100990.72;;;17.39;56.60
29215;BME280;16252;49.816;7.964;2023-09-30T04:45:36;100982.00;;;17.25;56.71
29215;BME280;16252;49.816;7.964;2023-09-30T04:48:01;100983.44;;;17.29;56.41
29215;BME280;16252;49.816;7.964;2023-09-30T04:50:27;100968.69;;;17.13;56.70
29215;BME280;16252;49.816;7.964;2023-09-30T04:52:52;100988.19;;;17.16;56.77
29215;BME280;16252;49.816;7.964;2023-09-30T04:55:18;101012.13;;;17.21;56.75
29215;BME280;16252;49.816;7.964;2023-09-30T04:57:45;100990.72;;;17.08;56.69
29215;BME280;16252;49.816;7.964;2023-09-30T05:00:13;100978.28;;;16.96;56.90
29215;BME280;16252;49.816;7.964;2023-09-30T05:02:38;101002.34;;;16.99;56.93
29215;BME280;16252;49.816;7.964;2023-09-30T05:05:04;100986.88;;;16.80;56.89
29215;BME280;16252;49.816;7.964;2023-09-30T05:07:31;100989.72;;;16.78;56.94
29215;BME280;16252;49.816;7.964;2023-09-30T05:09:57;100969.53;;;16.61;57.17
29215;BME280;16252;49.816;7.964;2023-09-30T05:12:23;101000.31;;;16.70;57.29
29215;BME280;16252;49.816;7.964;2023-09-30T05:14:48;101021.53;;;16.75;57.10
29215;BME280;16252;49.816;7.964;2023-09-30T05:17:13;101032.94;;;16.78;57.53
29215;BME280;16252;49.816;7.964;2023-09-30T05:19:39;100989.56;;;16.59;57.30
29215;BME280;16252;49.816;7.964;2023-09-30T05:22:04;101003.66;;;16.62;57.28
29215;BME280;16252;49.816;7.964;2023-09-30T05:24:30;101011.38;;;16.67;57.23
29215;BME280;16252;49.816;7.964;2023-09-30T05:26:56;101006.09;;;16.65;57.30
29215;BME280;16252;49.816;7.964;2023-09-30T05:29:21;101009.34;;;16.59;57.42
29215;BME280;16252;49.816;7.964;2023-09-30T05:31:47;100977.63;;;16.40;57.37
29215;BME280;16252;49.816;7.964;2023-09-30T05:34:12;100958.66;;;16.31;57.29
29215;BME280;16252;49.816;7.964;2023-09-30T05:36:38;101016.44;;;16.60;57.26
29215;BME280;16252;49.816;7.964;2023-09-30T05:39:03;101024.44;;;16.62;57.28
29215;BME280;16252;49.816;7.964;2023-09-30T05:41:30;100963.00;;;16.22;57.01
29215;BME280;16252;49.816;7.964;2023-09-30T05:43:55;101002.16;;;16.49;57.25
29215;BME280;16252;49.816;7.964;2023-09-30T05:46:21;100970.72;;;16.27;56.29
29215;BME280;16252;49.816;7.964;2023-09-30T05:48:46;100993.91;;;16.29;56.46
29215;BME280;16252;49.816;7.964;2023-09-30T05:51:12;101023.03;;;16.46;56.13
29215;BME280;16252;49.816;7.964;2023-09-30T05:53:40;101000.41;;;16.27;56.23
29215;BME280;16252;49.816;7.964;2023-09-30T05:56:06;100910.91;;;15.67;56.23
29215;BME280;16252;49.816;7.964;2023-09-30T05:58:32;101014.56;;;16.19;56.06
29215;BME280;16252;49.816;7.964;2023-09-30T06:00:57;101022.28;;;16.23;56.05
29215;BME280;16252;49.816;7.964;2023-09-30T06:03:23;101027.81;;;16.22;56.15
29215;BME280;16252;49.816;7.964;2023-09-30T06:05:48;101044.47;;;16.27;56.63
29215;BME280;16252;49.816;7.964;2023-09-30T06:08:14;101029.28;;;16.15;56.60
29215;BME280;16252;49.816;7.964;2023-09-30T06:10:42;101032.16;;;16.13;56.64
29215;BME280;16252;49.816;7.964;2023-09-30T06:13:08;101035.53;;;16.15;56.72
29215;BME280;16252;49.816;7.964;2023-09-30T06:15:39;101047.44;;;16.24;56.80
29215;BME280;16252;49.816;7.964;2023-09-30T06:18:06;101039.25;;;16.14;56.78
29215;BME280;16252;49.816;7.964;2023-09-30T06:20:31;101023.56;;;16.08;56.93
29215;BME280;16252;49.816;7.964;2023-09-30T06:22:57;101061.41;;;16.29;56.96
29215;BME280;16252;49.816;7.964;2023-09-30T06:25:22;101039.34;;;16.13;56.91
29215;BME280;16252;49.816;7.964;2023-09-30T06:27:49;101054.03;;;16.31;57.07
29215;BME280;16252;49.816;7.964;2023-09-30T06:30:15;101016.31;;;16.09;57.19
29215;BME280;16252;49.816;7.964;2023-09-30T06:32:41;101051.59;;;16.28;57.00
29215;BME280;16252;49.816;7.964;2023-09-30T06:35:08;101044.34;;;16.29;56.78
29215;BME280;16252;49.816;7.964;2023-09-30T06:37:36;100888.94;;;15.39;56.92
29215;BME280;16252;49.816;7.964;2023-09-30T06:40:01;101049.22;;;16.35;57.00
29215;BME280;16252;49.816;7.964;2023-09-30T06:42:29;101029.28;;;16.26;57.08
29215;BME280;16252;49.816;7.964;2023-09-30T06:44:54;100962.16;;;15.89;57.28
29215;BME280;16252;49.816;7.964;2023-09-30T06:47:19;101053.22;;;16.52;56.94
29215;BME280;16252;49.816;7.964;2023-09-30T06:49:46;101034.63;;;16.37;56.95
29215;BME280;16252;49.816;7.964;2023-09-30T06:52:11;101074.31;;;16.58;57.06
29215;BME280;16252;49.816;7.964;2023-09-30T06:54:37;101036.06;;;16.41;57.29
29215;BME280;16252;49.816;7.964;2023-09-30T06:57:02;101081.03;;;16.63;57.02
29215;BME280;16252;49.816;7.964;2023-09-30T06:59:27;101083.69;;;16.54;57.11
29215;BME280;16252;49.816;7.964;2023-09-30T07:01:52;101085.84;;;16.60;57.37
29215;BME280;16252;49.816;7.964;2023-09-30T07:04:18;101064.41;;;16.47;57.11
29215;BME280;16252;49.816;7.964;2023-09-30T07:06:43;101099.56;;;16.68;57.34
29215;BME280;16252;49.816;7.964;2023-09-30T07:09:08;101093.75;;;16.73;57.54
29215;BME280;16252;49.816;7.964;2023-09-30T07:11:35;101074.13;;;16.71;57.50
29215;BME280;16252;49.816;7.964;2023-09-30T07:14:01;101087.44;;;16.95;57.82
29215;BME280;16252;49.816;7.964;2023-09-30T07:16:27;101019.50;;;16.67;57.83
29215;BME280;16252;49.816;7.964;2023-09-30T07:18:52;101070.66;;;17.01;57.96
29215;BME280;16252;49.816;7.964;2023-09-30T07:21:17;101053.25;;;16.94;57.87
29215;BME280;16252;49.816;7.964;2023-09-30T07:23:43;101069.72;;;17.11;57.83
29215;BME280;16252;49.816;7.964;2023-09-30T07:26:08;101068.34;;;17.17;57.75
29215;BME280;16252;49.816;7.964;2023-09-30T07:28:34;101091.09;;;17.36;58.00
29215;BME280;16252;49.816;7.964;2023-09-30T07:30:59;101084.50;;;17.28;58.10
29215;BME280;16252;49.816;7.964;2023-09-30T07:33:24;101041.09;;;17.09;58.25
29215;BME280;16252;49.816;7.964;2023-09-30T07:35:49;101103.13;;;17.52;58.41
29215;BME280;16252;49.816;7.964;2023-09-30T07:38:15;101078.91;;;17.51;58.27
29215;BME280;16252;49.816;7.964;2023-09-30T07:40:40;101098.47;;;17.64;58.34
29215;BME280;16252;49.816;7.964;2023-09-30T07:43:06;101083.97;;;17.65;58.40
29215;BME280;16252;49.816;7.964;2023-09-30T07:45:31;101092.31;;;17.83;58.31
29215;BME280;16252;49.816;7.964;2023-09-30T07:47:57;101056.31;;;17.71;58.36
29215;BME280;16252;49.816;7.964;2023-09-30T07:50:23;101071.53;;;17.93;58.11
29215;BME280;16252;49.816;7.964;2023-09-30T07:52:49;101067.38;;;17.89;58.11
29215;BME280;16252;49.816;7.964;2023-09-30T07:55:15;101061.56;;;17.94;58.50
29215;BME280;16252;49.816;7.964;2023-09-30T07:57:41;101075.00;;;18.15;58.37
29215;BME280;16252;49.816;7.964;2023-09-30T08:00:08;101089.41;;;18.35;58.11
29215;BME280;16252;49.816;7.964;2023-09-30T08:02:39;101062.31;;;18.25;58.34
29215;BME280;16252;49.816;7.964;2023-09-30T08:05:06;101098.53;;;18.53;57.96
29215;BME280;16252;49.816;7.964;2023-09-30T08:07:31;101061.06;;;18.39;57.97
29215;BME280;16252;49.816;7.964;2023-09-30T08:09:56;100995.44;;;18.06;57.71
29215;BME280;16252;49.816;7.964;2023-09-30T08:12:22;101047.63;;;18.47;57.70
29215;BME280;16252;49.816;7.964;2023-09-30T08:14:47;101068.59;;;18.65;57.74
29215;BME280;16252;49.816;7.964;2023-09-30T08:17:14;101095.28;;;18.89;57.33
29215;BME280;16252;49.816;7.964;2023-09-30T08:19:40;101065.19;;;18.82;57.24
29215;BME280;16252;49.816;7.964;2023-09-30T08:22:05;101059.63;;;18.83;57.04
29215;BME280;16252;49.816;7.964;2023-09-30T08:24:31;101110.69;;;19.17;56.95
29215;BME280;16252;49.816;7.964;2023-09-30T08:26:57;101120.19;;;19.31;56.70
29215;BME280;16252;49.816;7.964;2023-09-30T08:29:22;101116.22;;;19.35;56.56
29215;BME280;16252;49.816;7.964;2023-09-30T08:31:47;101119.44;;;19.48;56.11
29215;BME280;16252;49.816;7.964;2023-09-30T08:34:13;101114.28;;;19.55;55.90
29215;BME280;16252;49.816;7.964;2023-09-30T08:36:40;101101.00;;;19.52;55.56
29215;BME280;16252;49.816;7.964;2023-09-30T08:39:05;101076.31;;;19.45;55.58
29215;BME280;16252;49.816;7.964;2023-09-30T08:41:32;101107.22;;;19.72;55.33
29215;BME280;16252;49.816;7.964;2023-09-30T08:44:01;101131.28;;;19.95;55.30
29215;BME280;16252;49.816;7.964;2023-09-30T08:46:30;101086.63;;;19.79;55.23
29215;BME280;16252;49.816;7.964;2023-09-30T08:48:58;101121.78;;;20.08;54.74
29215;BME280;16252;49.816;7.964;2023-09-30T08:51:23;101119.22;;;20.07;54.76
29215;BME280;16252;49.816;7.964;2023-09-30T08:53:50;101023.84;;;19.55;54.20
29215;BME280;16252;49.816;7.964;2023-09-30T08:56:24;101116.97;;;20.20;54.29
29215;BME280;16252;49.816;7.964;2023-09-30T08:58:50;101101.44;;;20.12;54.27
29215;BME280;16252;49.816;7.964;2023-09-30T09:01:16;101093.09;;;20.24;54.40
29215;BME280;16252;49.816;7.964;2023-09-30T09:03:41;101122.22;;;20.49;54.37
29215;BME280;16252;49.816;7.964;2023-09-30T09:06:06;101080.34;;;20.24;53.82
29215;BME280;16252;49.816;7.964;2023-09-30T09:08:32;101095.50;;;20.45;53.64
29215;BME280;16252;49.816;7.964;2023-09-30T09:10:59;101107.06;;;20.56;53.81
29215;BME280;16252;49.816;7.964;2023-09-30T09:13:26;101078.59;;;20.51;53.44
29215;BME280;16252;49.816;7.964;2023-09-30T09:16:07;101102.69;;;20.82;53.37
29215;BME280;16252;49.816;7.964;2023-09-30T09:18:33;101119.69;;;21.02;53.13
29215;BME280;16252;49.816;7.964;2023-09-30T09:21:16;101111.97;;;21.15;52.50
29215;BME280;16252;49.816;7.964;2023-09-30T09:23:46;101100.00;;;21.08;52.31
29215;BME280;16252;49.816;7.964;2023-09-30T09:26:23;101135.56;;;21.32;52.11
29215;BME280;16252;49.816;7.964;2023-09-30T09:28:59;101107.78;;;21.29;52.01
29215;BME280;16252;49.816;7.964;2023-09-30T09:31:35;101123.25;;;21.46;51.72
29215;BME280;16252;49.816;7.964;2023-09-30T09:34:02;101049.13;;;21.08;51.95
29215;BME280;16252;49.816;7.964;2023-09-30T09:36:44;101118.56;;;21.64;51.31
29215;BME280;16252;49.816;7.964;2023-09-30T09:39:11;101106.81;;;21.56;51.92
29215;BME280;16252;49.816;7.964;2023-09-30T09:41:54;101118.00;;;21.87;52.18
29215;BME280;16252;49.816;7.964;2023-09-30T09:44:21;101126.53;;;22.26;52.88
29215;BME280;16252;49.816;7.964;2023-09-30T09:46:47;101131.19;;;22.50;52.89
29215;BME280;16252;49.816;7.964;2023-09-30T09:49:16;101076.16;;;22.80;52.54
29215;BME280;16252;49.816;7.964;2023-09-30T09:51:43;101077.78;;;23.46;51.31
29215;BME280;16252;49.816;7.964;2023-09-30T09:54:11;101093.13;;;24.34;51.35
29215;BME280;16252;49.816;7.964;2023-09-30T09:56:36;101118.63;;;25.27;49.59
29215;BME280;16252;49.816;7.964;2023-09-30T09:59:04;101088.59;;;25.93;48.62
29215;BME280;16252;49.816;7.964;2023-09-30T10:01:30;101103.53;;;26.85;48.22
29215;BME280;16252;49.816;7.964;2023-09-30T10:03:56;101065.28;;;27.39;47.47
29215;BME280;16252;49.816;7.964;2023-09-30T10:06:21;101088.34;;;28.21;45.25
29215;BME280;16252;49.816;7.964;2023-09-30T10:08:49;101053.72;;;28.73;45.57
29215;BME280;16252;49.816;7.964;2023-09-30T10:11:17;101085.28;;;29.51;44.66
29215;BME280;16252;49.816;7.964;2023-09-30T10:19:12;101070.28;;;31.00;42.51
29215;BME280;16252;49.816;7.964;2023-09-30T10:21:39;101075.47;;;31.40;39.75
29215;BME280;16252;49.816;7.964;2023-09-30T10:24:28;101078.06;;;31.72;41.70
29215;BME280;16252;49.816;7.964;2023-09-30T10:29:41;101084.38;;;32.16;39.44
29215;BME280;16252;49.816;7.964;2023-09-30T10:32:09;101074.53;;;32.32;38.47
29215;BME280;16252;49.816;7.964;2023-09-30T10:34:35;101072.34;;;32.52;38.05
29215;BME280;16252;49.816;7.964;2023-09-30T10:37:19;101072.41;;;32.76;39.56
29215;BME280;16252;49.816;7.964;2023-09-30T10:39:57;101075.09;;;32.94;38.21
29215;BME280;16252;49.816;7.964;2023-09-30T10:42:47;101063.41;;;33.04;37.80
29215;BME280;16252;49.816;7.964;2023-09-30T10:50:53;101060.88;;;33.26;35.25
29215;BME280;16252;49.816;7.964;2023-09-30T10:53:20;101063.41;;;33.39;35.15
29215;BME280;16252;49.816;7.964;2023-09-30T10:55:46;101049.78;;;33.38;34.76
29215;BME280;16252;49.816;7.964;2023-09-30T10:58:15;101071.38;;;33.59;34.07
29215;BME280;16252;49.816;7.964;2023-09-30T11:00:54;101024.69;;;33.44;35.53
29215;BME280;16252;49.816;7.964;2023-09-30T11:03:21;101060.97;;;33.66;33.66
29215;BME280;16252;49.816;7.964;2023-09-30T11:05:53;101051.34;;;33.57;34.29
29215;BME280;16252;49.816;7.964;2023-09-30T11:08:21;101067.00;;;33.52;32.79
29215;BME280;16252;49.816;7.964;2023-09-30T11:10:48;101069.19;;;33.14;32.73
29215;BME280;16252;49.816;7.964;2023-09-30T11:13:16;100970.25;;;32.14;32.86
29215;BME280;16252;49.816;7.964;2023-09-30T11:15:41;101069.75;;;32.39;32.41
29215;BME280;16252;49.816;7.964;2023-09-30T11:18:14;101060.91;;;32.00;33.02
29215;BME280;16252;49.816;7.964;2023-09-30T11:20:41;101056.16;;;31.52;32.36
29215;BME280;16252;49.816;7.964;2023-09-30T11:23:07;101048.50;;;31.10;32.54
29215;BME280;16252;49.816;7.964;2023-09-30T11:25:36;101069.16;;;30.83;33.09
29215;BME280;16252;49.816;7.964;2023-09-30T11:28:15;101065.44;;;30.39;33.64
29215;BME280;16252;49.816;7.964;2023-09-30T11:30:57;101064.97;;;29.97;34.26
29215;BME280;16252;49.816;7.964;2023-09-30T11:33:23;101056.88;;;29.50;33.73
29215;BME280;16252;49.816;7.964;2023-09-30T11:35:57;101062.03;;;29.20;34.18
29215;BME280;16252;49.816;7.964;2023-09-30T11:38:23;101026.22;;;28.67;34.48
29215;BME280;16252;49.816;7.964;2023-09-30T11:41:03;101020.47;;;28.48;34.80
29215;BME280;16252;49.816;7.964;2023-09-30T11:43:34;101067.50;;;28.47;34.90
29215;BME280;16252;49.816;7.964;2023-09-30T11:46:10;101057.88;;;28.23;35.05
29215;BME280;16252;49.816;7.964;2023-09-30T11:48:55;101050.59;;;27.95;34.57
29215;BME280;16252;49.816;7.964;2023-09-30T11:51:21;101041.38;;;27.68;35.25
29215;BME280;16252;49.816;7.964;2023-09-30T11:53:49;101058.66;;;27.62;35.08
29215;BME280;16252;49.816;7.964;2023-09-30T11:56:15;101038.03;;;27.38;35.22
29215;BME280;16252;49.816;7.964;2023-09-30T11:58:40;101014.81;;;27.12;35.71
29215;BME280;16252;49.816;7.964;2023-09-30T12:01:06;101032.53;;;27.10;35.63
29215;BME280;16252;49.816;7.964;2023-09-30T12:03:32;101042.03;;;27.07;35.36
29215;BME280;16252;49.816;7.964;2023-09-30T12:06:02;101050.63;;;26.97;35.45
29215;BME280;16252;49.816;7.964;2023-09-30T12:08:27;101048.22;;;26.88;35.78
29215;BME280;16252;49.816;7.964;2023-09-30T12:10:54;101037.78;;;26.76;35.82
29215;BME280;16252;49.816;7.964;2023-09-30T12:13:20;101007.78;;;26.53;35.91
29215;BME280;16252;49.816;7.964;2023-09-30T12:15:46;100994.50;;;26.35;36.28
29215;BME280;16252;49.816;7.964;2023-09-30T12:18:11;100966.25;;;26.13;36.40
29215;BME280;16252;49.816;7.964;2023-09-30T12:20:39;100989.00;;;26.29;35.89
29215;BME280;16252;49.816;7.964;2023-09-30T12:23:06;100991.25;;;26.25;36.09
29215;BME280;16252;49.816;7.964;2023-09-30T12:25:31;101006.09;;;26.31;35.81
29215;BME280;16252;49.816;7.964;2023-09-30T12:27:58;100974.00;;;26.10;36.34
29215;BME280;16252;49.816;7.964;2023-09-30T12:30:23;100934.69;;;25.81;36.41
29215;BME280;16252;49.816;7.964;2023-09-30T12:32:49;101011.50;;;26.24;36.90
29215;BME280;16252;49.816;7.964;2023-09-30T12:35:14;101010.47;;;26.25;36.34
29215;BME280;16252;49.816;7.964;2023-09-30T12:37:40;100994.94;;;26.11;36.33
29215;BME280;16252;49.816;7.964;2023-09-30T12:40:06;100996.47;;;26.20;36.77
29215;BME280;16252;49.816;7.964;2023-09-30T12:42:36;100938.78;;;25.85;37.20
29215;BME280;16252;49.816;7.964;2023-09-30T12:45:02;101003.41;;;26.16;37.22
29215;BME280;16252;49.816;7.964;2023-09-30T12:47:28;100980.28;;;26.04;37.61
29215;BME280;16252;49.816;7.964;2023-09-30T12:49:53;100941.97;;;25.74;37.33
29215;BME280;16252;49.816;7.964;2023-09-30T12:52:22;101010.72;;;26.09;37.59
29215;BME280;16252;49.816;7.964;2023-09-30T12:54:48;100994.59;;;25.99;37.84
29215;BME280;16252;49.816;7.964;2023-09-30T12:57:13;101022.97;;;26.13;37.62
29215;BME280;16252;49.816;7.964;2023-09-30T12:59:42;100984.59;;;25.91;37.68
29215;BME280;16252;49.816;7.964;2023-09-30T13:02:08;101000.47;;;25.96;37.83